createdAt,value
2018-11-27T01:21:45.177Z,21.53
2018-11-27T01:26:49.775Z,21.37
2018-11-27T01:31:54.453Z,20.43
2018-11-27T01:36:59.084Z,20.13
2018-11-27T01:42:03.793Z,20.60
2018-11-27T01:47:08.429Z,19.23
2018-11-27T01:52:13.116Z,19.00
2018-11-27T01:57:17.727Z,19.60
2018-11-27T02:02:22.373Z,19.50
2018-11-27T02:07:26.967Z,19.10
2018-11-27T02:12:31.571Z,18.47
2018-11-27T02:17:36.202Z,17.87
2018-11-27T02:22:41.062Z,17.63
2018-11-27T02:27:45.691Z,17.57
2018-11-27T02:32:50.368Z,16.53
2018-11-27T02:37:58.028Z,17.87
2018-11-27T02:43:02.664Z,22.97
2018-11-27T02:48:08.037Z,22.93
2018-11-27T02:53:12.741Z,24.57
2018-11-27T02:58:17.453Z,24.53
2018-11-27T03:03:22.168Z,24.37
2018-11-27T03:08:26.815Z,24.30
2018-11-27T03:13:31.448Z,22.80
2018-11-27T03:18:36.084Z,20.93
2018-11-27T03:23:40.732Z,21.17
2018-11-27T03:28:45.353Z,23.17
2018-11-27T03:33:49.977Z,21.20
2018-11-27T03:38:54.575Z,21.27
2018-11-27T03:43:59.157Z,21.30
2018-11-27T03:49:03.800Z,21.27
2018-11-27T03:54:08.366Z,21.97
2018-11-27T03:59:12.953Z,20.43
2018-11-27T04:04:17.569Z,21.23
2018-11-27T04:09:22.224Z,20.00
2018-11-27T04:14:26.795Z,22.00
2018-11-27T04:19:31.420Z,20.13
2018-11-27T04:24:36.076Z,21.47
2018-11-27T04:29:40.634Z,21.83
2018-11-27T04:34:45.209Z,24.07
2018-11-27T04:39:49.895Z,21.70
2018-11-27T04:44:54.542Z,21.23
2018-11-27T04:49:59.108Z,22.60
2018-11-27T04:55:03.720Z,22.93
2018-11-27T05:00:19.502Z,21.27
2018-11-27T05:05:24.094Z,21.83
2018-11-27T05:10:28.674Z,22.30
2018-11-27T05:15:33.286Z,20.63
2018-11-27T05:20:37.862Z,21.30
2018-11-27T05:25:42.500Z,19.53
2018-11-27T05:30:47.082Z,20.00
2018-11-27T05:35:51.728Z,18.87
2018-11-27T05:40:56.301Z,18.93
2018-11-27T05:46:00.927Z,20.37
2018-11-27T05:51:06.586Z,20.33
2018-11-27T05:56:11.259Z,20.80
2018-11-27T06:01:17.598Z,20.60
2018-11-27T06:06:22.285Z,20.60
2018-11-27T06:11:27.475Z,19.87
2018-11-27T06:16:33.919Z,20.23
2018-11-27T06:21:40.068Z,19.10
2018-11-27T06:26:46.284Z,21.03
2018-11-27T06:31:50.857Z,21.47
2018-11-27T06:36:55.424Z,21.37
2018-11-27T06:41:59.980Z,20.27
2018-11-27T06:47:04.556Z,21.00
2018-11-27T06:52:09.126Z,21.37
2018-11-27T06:57:13.741Z,21.40
2018-11-27T07:02:18.351Z,20.70
2018-11-27T07:07:22.935Z,21.13
2018-11-27T07:12:27.487Z,20.03
2018-11-27T07:17:32.056Z,20.33
2018-11-27T10:47:36.755Z,22.53
2018-11-27T10:53:11.824Z,21.83
2018-11-27T10:58:56.471Z,24.30
2018-11-27T11:04:49.662Z,24.70
2018-11-27T11:15:53.805Z,24.27
2018-11-27T11:27:36.628Z,25.97
2018-11-27T17:47:52.873Z,26.37
2018-11-27T17:52:57.455Z,27.00
2018-11-27T17:58:02.330Z,27.10
2018-11-27T18:03:09.431Z,25.17
2018-11-27T18:08:14.036Z,24.97
2018-11-27T18:13:19.167Z,27.03
2018-11-27T18:18:23.934Z,29.60
2018-11-27T18:23:28.887Z,26.90
2018-11-27T18:28:33.365Z,30.20
2018-11-27T18:33:37.861Z,33.13
2018-11-27T18:38:42.493Z,30.13
2018-11-27T18:43:47.156Z,29.70
2018-11-27T18:48:58.663Z,26.63
2018-11-27T18:54:09.180Z,30.60
2018-11-27T18:59:13.846Z,29.00
2018-11-27T19:04:19.152Z,27.80
2018-11-27T19:09:29.355Z,29.87
2018-11-27T19:14:34.849Z,32.10
2018-11-27T19:19:41.554Z,26.53
2018-11-27T19:24:46.413Z,29.53
2018-11-27T19:29:51.470Z,30.07
2018-11-27T19:34:56.297Z,30.10
2018-11-27T19:40:01.044Z,34.77
2018-11-27T19:45:09.401Z,35.80
2018-11-27T19:50:14.696Z,38.00
2018-11-27T19:55:20.294Z,37.50
2018-11-27T20:00:26.250Z,35.00
2018-11-27T20:05:31.257Z,32.80
2018-11-27T20:10:35.816Z,30.03
2018-11-27T20:15:40.479Z,33.87
2018-11-27T20:20:45.289Z,33.50
2018-11-27T20:25:50.180Z,31.93
2018-11-27T20:30:54.944Z,32.63
2018-11-27T20:35:59.665Z,33.87
2018-11-27T20:41:04.416Z,32.53
2018-11-27T20:46:15.144Z,34.97
2018-11-27T20:51:20.075Z,33.07
2018-11-27T20:56:24.809Z,39.87
2018-11-27T21:01:32.405Z,38.93
2018-11-27T21:06:37.085Z,34.27
2018-11-27T21:11:41.924Z,36.07
2018-11-27T21:16:46.517Z,35.53
2018-11-27T21:21:51.230Z,38.97
2018-11-27T21:26:55.817Z,35.90
2018-11-27T21:32:00.516Z,32.03
2018-11-27T21:37:05.707Z,29.10
2018-11-27T21:42:10.220Z,26.17
2018-11-27T21:47:14.829Z,28.03
2018-11-27T21:52:19.426Z,27.30
2018-11-27T21:57:24.046Z,25.80
2018-11-27T22:02:28.599Z,27.00
2018-11-27T22:07:33.221Z,25.47
2018-11-27T22:12:37.813Z,26.70
2018-11-27T22:17:42.441Z,25.47
2018-11-27T22:22:46.984Z,26.70
2018-11-27T22:27:51.595Z,25.23
2018-11-27T22:32:56.617Z,26.13
2018-11-27T22:38:01.195Z,22.07
2018-11-27T22:43:06.954Z,22.13
2018-11-27T22:48:12.387Z,24.77
2018-11-27T22:53:16.962Z,23.93
2018-11-27T22:58:21.579Z,24.53
2018-11-27T23:03:26.135Z,25.77
2018-11-27T23:08:30.751Z,27.33
2018-11-27T23:13:35.331Z,25.60
2018-11-27T23:18:39.883Z,27.43
2018-11-27T23:23:44.487Z,25.87
2018-11-27T23:28:49.074Z,27.00
2018-11-27T23:33:53.716Z,24.93
2018-11-27T23:38:58.282Z,24.47
2018-11-27T23:44:02.963Z,26.37
2018-11-27T23:49:07.560Z,25.27
2018-11-27T23:54:15.427Z,23.43
2018-11-27T23:59:20.135Z,24.07
